createdAt,value
2017-11-13T00:00:27.370Z,7.75
2017-11-13T00:03:04.485Z,7.93
2017-11-13T00:05:43.645Z,7.55
2017-11-13T00:08:20.109Z,8.48
2017-11-13T00:10:59.899Z,9.80
2017-11-13T00:13:39.832Z,8.88
2017-11-13T00:16:18.642Z,8.98
2017-11-13T00:18:47.020Z,9.15
2017-11-13T00:21:13.932Z,8.55
2017-11-13T00:23:41.640Z,11.12
2017-11-13T00:26:08.531Z,8.93
2017-11-13T00:28:35.550Z,10.65
2017-11-13T00:31:02.600Z,9.32
2017-11-13T00:33:29.514Z,8.63
2017-11-13T00:35:56.390Z,9.90
2017-11-13T00:38:23.330Z,8.48
2017-11-13T00:40:50.219Z,9.90
2017-11-13T00:43:17.116Z,11.40
2017-11-13T00:45:44.063Z,10.70
2017-11-13T00:48:10.973Z,11.85
2017-11-13T00:50:38.607Z,11.48
2017-11-13T00:53:05.614Z,10.57
2017-11-13T00:55:32.485Z,12.15
2017-11-13T00:57:59.430Z,11.27
2017-11-13T01:00:26.472Z,10.45
2017-11-13T01:02:53.373Z,10.23
2017-11-13T01:05:20.314Z,9.60
2017-11-13T01:07:47.198Z,9.05
2017-11-13T01:10:14.154Z,8.55
2017-11-13T01:12:41.052Z,9.18
2017-11-13T01:15:07.997Z,9.57
2017-11-13T01:17:35.706Z,9.13
2017-11-13T01:20:02.601Z,10.45
2017-11-13T01:22:30.325Z,9.57
2017-11-13T01:24:57.218Z,11.57
2017-11-13T01:27:24.896Z,9.65
2017-11-13T01:29:51.824Z,10.07
2017-11-13T01:32:19.447Z,10.45
2017-11-13T01:34:46.433Z,11.02
2017-11-13T01:37:14.077Z,9.75
2017-11-13T01:39:41.059Z,9.90
2017-11-13T01:42:08.007Z,11.00
2017-11-13T01:44:34.966Z,9.40
2017-11-13T01:47:01.896Z,10.25
2017-11-13T01:49:28.805Z,11.25
2017-11-13T01:51:55.870Z,9.57
2017-11-13T01:54:22.743Z,9.48
2017-11-13T01:56:49.703Z,10.82
2017-11-13T01:59:16.648Z,11.35
2017-11-13T02:01:43.540Z,11.80
2017-11-13T02:04:10.594Z,11.32
2017-11-13T02:06:37.666Z,11.63
2017-11-13T02:09:05.434Z,11.23
2017-11-13T02:11:33.236Z,12.30
2017-11-13T02:14:00.210Z,10.95
2017-11-13T02:16:27.417Z,11.93
2017-11-13T02:18:54.337Z,11.70
2017-11-13T02:21:22.037Z,11.35
2017-11-13T02:23:49.145Z,12.05
2017-11-13T02:26:16.157Z,11.18
2017-11-13T02:28:43.185Z,12.10
2017-11-13T02:31:10.218Z,11.88
2017-11-13T02:33:37.284Z,12.75
2017-11-13T02:36:04.267Z,11.95
2017-11-13T02:38:31.304Z,11.88
2017-11-13T02:40:58.286Z,12.45
2017-11-13T02:43:25.353Z,10.55
2017-11-13T02:45:52.314Z,11.73
2017-11-13T02:48:19.298Z,12.50
2017-11-13T02:50:46.327Z,11.45
2017-11-13T02:53:13.486Z,11.15
2017-11-13T02:55:40.563Z,12.68
2017-11-13T02:58:07.620Z,13.32
2017-11-13T03:00:35.303Z,12.50
2017-11-13T03:03:02.999Z,12.82
2017-11-13T03:05:29.896Z,13.07
2017-11-13T03:07:57.564Z,13.70
2017-11-13T03:10:25.310Z,12.13
2017-11-13T03:12:52.281Z,12.55
2017-11-13T03:15:20.075Z,12.18
2017-11-13T03:17:46.966Z,12.00
2017-11-13T03:20:13.942Z,12.90
2017-11-13T03:22:40.931Z,12.80
2017-11-13T03:25:07.865Z,12.70
2017-11-13T03:27:34.859Z,13.43
2017-11-13T03:30:01.832Z,11.65
2017-11-13T03:32:28.818Z,13.07
2017-11-13T03:34:55.722Z,12.40
2017-11-13T03:37:22.602Z,12.82
2017-11-13T03:39:49.541Z,12.82
2017-11-13T03:42:16.497Z,12.93
2017-11-13T03:44:43.389Z,13.50
2017-11-13T03:47:10.302Z,12.93
2017-11-13T03:49:37.301Z,13.18
2017-11-13T03:52:04.287Z,11.75
2017-11-13T03:54:31.194Z,11.90
2017-11-13T03:56:58.177Z,11.90
2017-11-13T03:59:25.078Z,11.70
2017-11-13T04:01:52.718Z,12.95
2017-11-13T04:04:20.400Z,11.98
2017-11-13T04:06:48.094Z,11.10
2017-11-13T04:09:15.012Z,11.85
2017-11-13T04:11:42.713Z,11.18
2017-11-13T04:14:09.678Z,11.60
2017-11-13T04:16:36.633Z,12.32
2017-11-13T04:19:03.642Z,13.77
2017-11-13T04:21:30.590Z,12.32
2017-11-13T04:23:57.583Z,11.48
2017-11-13T04:26:24.625Z,11.93
2017-11-13T04:28:51.520Z,11.85
2017-11-13T04:31:18.386Z,12.77
2017-11-13T04:33:45.364Z,12.95
2017-11-13T04:36:12.360Z,13.45
2017-11-13T04:38:39.256Z,11.52
2017-11-13T04:41:06.202Z,12.40
2017-11-13T04:43:33.154Z,12.00
2017-11-13T04:46:00.149Z,11.73
2017-11-13T04:48:27.053Z,11.63
2017-11-13T04:50:53.989Z,12.63
2017-11-13T04:53:20.863Z,11.63
2017-11-13T04:55:48.590Z,11.30
2017-11-13T04:58:15.481Z,12.27
2017-11-13T05:00:42.392Z,12.25
2017-11-13T05:03:09.410Z,11.12
2017-11-13T05:05:36.424Z,11.55
2017-11-13T05:08:03.423Z,11.98
2017-11-13T05:10:30.353Z,12.77
2017-11-13T05:12:57.372Z,12.30
2017-11-13T05:15:24.301Z,10.90
2017-11-13T05:17:51.992Z,13.10
2017-11-13T05:20:18.950Z,13.23
2017-11-13T05:22:49.626Z,12.32
2017-11-13T05:25:19.568Z,11.50
2017-11-13T05:28:01.755Z,11.60
2017-11-13T05:30:29.693Z,12.93
2017-11-13T05:32:56.583Z,12.57
2017-11-13T05:35:27.449Z,13.57
2017-11-13T05:37:54.395Z,12.35
2017-11-13T05:40:21.277Z,12.30
2017-11-13T05:42:48.238Z,12.25
2017-11-13T05:45:15.113Z,14.45
2017-11-13T05:47:42.736Z,13.93
2017-11-13T05:50:10.132Z,12.85
2017-11-13T05:52:37.755Z,13.68
2017-11-13T05:55:04.704Z,13.70
2017-11-13T05:57:31.613Z,14.70
2017-11-13T05:59:58.485Z,14.82
2017-11-13T06:02:25.470Z,13.13
2017-11-13T06:04:53.169Z,13.43
2017-11-13T06:07:20.064Z,13.85
2017-11-13T06:09:47.027Z,15.00
2017-11-13T06:12:14.645Z,12.80
2017-11-13T06:14:41.601Z,13.10
2017-11-13T06:17:08.602Z,12.65
2017-11-13T06:19:35.506Z,14.77
2017-11-13T06:22:02.450Z,13.25
2017-11-13T06:24:34.879Z,14.10
2017-11-13T06:27:09.885Z,14.30
2017-11-13T06:29:42.607Z,14.52
2017-11-13T06:32:15.816Z,14.95
2017-11-13T06:34:48.472Z,13.62
2017-11-13T06:37:21.426Z,13.90
2017-11-13T06:39:54.873Z,12.80
2017-11-13T06:42:22.226Z,14.60
2017-11-13T06:44:49.114Z,14.02
2017-11-13T06:47:16.008Z,15.25
2017-11-13T06:49:42.976Z,14.45
2017-11-13T06:52:09.926Z,13.07
2017-11-13T06:54:36.879Z,13.93
2017-11-13T06:57:03.800Z,15.07
2017-11-13T06:59:30.688Z,15.50
2017-11-13T07:01:57.647Z,14.43
2017-11-13T07:04:24.565Z,15.15
2017-11-13T07:06:51.557Z,17.30
2017-11-13T07:09:19.214Z,14.73
2017-11-13T07:11:46.852Z,14.30
2017-11-13T07:14:13.801Z,15.20
2017-11-13T07:16:40.688Z,13.87
2017-11-13T07:19:07.624Z,12.43
2017-11-13T07:21:35.275Z,14.20
2017-11-13T07:24:03.068Z,12.97
2017-11-13T07:26:29.967Z,15.43
2017-11-13T07:28:56.991Z,14.03
2017-11-13T07:31:24.049Z,13.60
2017-11-13T07:33:51.051Z,12.80
2017-11-13T07:36:17.950Z,13.87
2017-11-13T07:38:44.913Z,15.07
2017-11-13T07:41:11.946Z,14.70
2017-11-13T07:43:38.845Z,14.17
2017-11-13T07:46:05.797Z,13.30
2017-11-13T07:48:32.764Z,13.60
2017-11-13T07:50:59.676Z,12.93
2017-11-13T07:53:26.582Z,17.77
2017-11-13T07:55:53.558Z,13.80
2017-11-13T07:58:21.252Z,14.50
2017-11-13T08:00:48.232Z,16.00
2017-11-13T08:03:15.186Z,15.80
2017-11-13T08:05:42.078Z,14.47
2017-11-13T08:08:09.052Z,14.50
2017-11-13T08:10:35.968Z,14.63
2017-11-13T08:13:02.965Z,16.10
2017-11-13T08:15:29.923Z,14.10
2017-11-13T08:17:56.887Z,13.50
2017-11-13T08:20:26.301Z,13.23
2017-11-13T08:22:53.287Z,12.87
2017-11-13T08:25:20.343Z,13.23
2017-11-13T08:27:47.325Z,12.00
2017-11-13T08:30:14.378Z,13.30
2017-11-13T08:32:41.390Z,12.73
2017-11-13T08:35:08.492Z,12.70
2017-11-13T08:37:35.521Z,12.97
2017-11-13T08:40:02.509Z,13.20
2017-11-13T08:42:29.574Z,13.47
2017-11-13T08:44:56.562Z,13.27
2017-11-13T08:47:23.427Z,12.87
2017-11-13T08:49:50.457Z,14.00
2017-11-13T08:52:17.352Z,14.00
2017-11-13T08:54:44.263Z,12.17
2017-11-13T08:57:11.235Z,12.20
2017-11-13T08:59:38.135Z,12.47
2017-11-13T09:02:05.814Z,11.30
2017-11-13T09:04:33.501Z,12.40
2017-11-13T09:07:00.464Z,11.00
2017-11-13T09:09:27.417Z,8.57
2017-11-13T09:11:54.337Z,7.87
2017-11-13T09:14:21.276Z,8.60
2017-11-13T09:16:48.284Z,7.47
2017-11-13T09:19:15.164Z,7.93
2017-11-13T09:21:42.137Z,8.20
2017-11-13T09:24:09.102Z,7.37
2017-11-13T09:26:36.067Z,8.40
2017-11-13T09:29:06.442Z,8.50
2017-11-13T09:31:33.329Z,7.30
2017-11-13T09:34:02.349Z,7.60
2017-11-13T09:36:29.517Z,7.03
2017-11-13T09:38:57.226Z,7.30
2017-11-13T09:41:24.198Z,6.67
2017-11-13T09:43:51.209Z,8.00
2017-11-13T09:46:18.167Z,8.13
2017-11-13T09:48:45.157Z,8.10
2017-11-13T09:51:12.098Z,7.67
2017-11-13T09:53:39.139Z,8.20
2017-11-13T09:56:06.156Z,8.63
2017-11-13T09:58:33.091Z,9.07
2017-11-13T10:01:00.167Z,8.90
2017-11-13T10:03:27.094Z,8.73
2017-11-13T10:05:54.173Z,7.40
2017-11-13T10:08:21.207Z,8.10
2017-11-13T10:10:48.158Z,7.73
2017-11-13T10:13:15.137Z,8.37
2017-11-13T10:15:42.788Z,8.37
2017-11-13T10:18:09.813Z,7.30
2017-11-13T10:20:36.789Z,7.90
2017-11-13T10:23:03.742Z,8.80
2017-11-13T10:25:31.582Z,7.43
2017-11-13T10:27:58.605Z,8.23
2017-11-13T10:30:25.495Z,6.80
2017-11-13T10:32:52.477Z,7.07
2017-11-13T10:35:19.487Z,5.80
2017-11-13T10:37:46.477Z,5.80
2017-11-13T10:40:13.423Z,6.13
2017-11-13T10:42:40.320Z,6.97
2017-11-13T10:45:07.337Z,5.90
2017-11-13T10:47:34.270Z,5.47
2017-11-13T10:50:01.181Z,5.27
2017-11-13T10:52:28.911Z,9.33
2017-11-13T10:54:55.895Z,7.40
2017-11-13T10:57:23.634Z,7.23
2017-11-13T10:59:50.685Z,7.17
2017-11-13T11:02:17.768Z,7.60
2017-11-13T11:04:45.520Z,5.40
2017-11-13T11:07:13.264Z,5.30
2017-11-13T11:09:40.344Z,5.80
2017-11-13T11:12:08.171Z,5.00
2017-11-13T11:14:36.239Z,5.47
2017-11-13T11:17:03.251Z,5.93
2017-11-13T11:19:30.244Z,6.07
2017-11-13T11:22:01.085Z,5.83
2017-11-13T11:24:28.073Z,5.00
2017-11-13T11:26:55.998Z,5.17
2017-11-13T11:29:40.555Z,5.27
2017-11-13T11:32:09.592Z,5.40
2017-11-13T11:34:39.210Z,4.60
2017-11-13T11:37:07.157Z,4.93
2017-11-13T11:39:34.990Z,5.20
2017-11-13T11:42:01.975Z,4.80
2017-11-13T11:44:30.734Z,4.73
2017-11-13T11:46:57.770Z,5.30
2017-11-13T11:49:24.734Z,5.30
2017-11-13T11:51:51.819Z,4.67
2017-11-13T11:54:33.577Z,4.97
2017-11-13T11:57:15.433Z,4.97
2017-11-13T11:59:42.452Z,5.13
2017-11-13T12:02:09.492Z,5.50
2017-11-13T12:04:36.555Z,4.70
2017-11-13T12:07:03.566Z,5.03
2017-11-13T12:09:30.542Z,5.20
2017-11-13T12:11:57.454Z,4.90
2017-11-13T12:14:24.367Z,5.67
2017-11-13T12:16:51.354Z,5.37
2017-11-13T12:19:18.306Z,4.97
2017-11-13T12:21:45.173Z,4.43
2017-11-13T12:24:12.219Z,4.17
2017-11-13T12:26:39.133Z,3.80
2017-11-13T12:29:06.135Z,4.10
2017-11-13T12:31:33.019Z,4.37
2017-11-13T12:33:59.998Z,4.00
2017-11-13T12:36:26.914Z,5.60
2017-11-13T12:38:53.965Z,5.40
2017-11-13T12:41:21.005Z,5.17
2017-11-13T12:43:47.946Z,4.80
2017-11-13T12:46:14.920Z,4.00
2017-11-13T12:48:41.818Z,3.20
2017-11-13T12:51:08.743Z,3.40
2017-11-13T12:53:35.710Z,8.60
2017-11-13T12:56:02.621Z,5.03
2017-11-13T12:58:29.555Z,3.60
2017-11-13T13:00:57.329Z,3.93
2017-11-13T13:03:24.269Z,3.30
2017-11-13T13:05:51.259Z,3.27
2017-11-13T13:08:18.245Z,3.40
2017-11-13T13:10:45.208Z,4.27
2017-11-13T13:13:12.140Z,2.97
2017-11-13T13:15:39.110Z,3.90
2017-11-13T13:18:06.801Z,3.40
2017-11-13T13:20:33.761Z,2.90
2017-11-13T13:23:00.697Z,3.80
2017-11-13T13:25:27.612Z,3.60
2017-11-13T13:27:55.389Z,3.30
2017-11-13T13:30:23.061Z,2.80
2017-11-13T13:32:50.003Z,2.63
2017-11-13T13:35:16.975Z,4.63
2017-11-13T13:37:43.930Z,2.43
2017-11-13T13:40:10.949Z,3.07
2017-11-13T13:42:37.816Z,3.27
2017-11-13T13:45:04.856Z,3.50
2017-11-13T13:47:31.818Z,2.70
2017-11-13T13:49:58.721Z,2.00
2017-11-13T13:52:26.370Z,2.70
2017-11-13T13:54:53.334Z,2.40
2017-11-13T13:57:20.962Z,2.63
2017-11-13T13:59:47.880Z,2.80
2017-11-13T14:02:14.819Z,3.43
2017-11-13T14:04:41.701Z,3.07
2017-11-13T14:07:08.602Z,2.90
2017-11-13T14:09:35.549Z,2.97
2017-11-13T14:12:02.453Z,3.13
2017-11-13T14:14:29.347Z,2.57
2017-11-13T14:16:56.320Z,2.60
2017-11-13T14:19:23.242Z,3.07
2017-11-13T14:21:50.136Z,2.97
2017-11-13T14:24:17.857Z,3.30
2017-11-13T14:26:44.770Z,2.60
2017-11-13T14:29:11.797Z,2.57
2017-11-13T14:31:39.533Z,5.37
2017-11-13T14:34:06.502Z,3.53
2017-11-13T14:36:33.395Z,4.30
2017-11-13T14:39:00.357Z,29.00
2017-11-13T14:41:27.379Z,9.47
2017-11-13T14:43:59.234Z,2.70
2017-11-13T14:46:26.234Z,2.23
2017-11-13T14:48:53.149Z,2.20
2017-11-13T14:51:20.075Z,4.40
2017-11-13T14:53:47.072Z,2.77
2017-11-13T14:56:14.090Z,3.23
2017-11-13T14:58:41.098Z,1.70
2017-11-13T15:01:08.895Z,2.60
2017-11-13T15:03:35.837Z,2.40
2017-11-13T15:06:02.880Z,2.43
2017-11-13T15:08:29.839Z,2.47
2017-11-13T15:10:56.696Z,2.20
2017-11-13T15:13:23.640Z,2.27
2017-11-13T15:15:50.506Z,3.07
2017-11-13T15:18:17.401Z,2.37
2017-11-13T15:20:45.079Z,3.00
2017-11-13T15:23:11.975Z,3.30
2017-11-13T15:25:39.040Z,2.50
2017-11-13T15:28:05.985Z,3.33
2017-11-13T15:30:35.080Z,2.90
2017-11-13T15:33:13.801Z,2.40
2017-11-13T15:35:47.721Z,3.40
2017-11-13T15:38:15.284Z,5.40
2017-11-13T15:40:43.045Z,6.40
2017-11-13T15:43:10.733Z,5.17
2017-11-13T15:45:37.706Z,5.83
2017-11-13T15:48:04.662Z,5.17
2017-11-13T15:50:31.732Z,4.10
2017-11-13T15:52:58.685Z,5.70
2017-11-13T15:55:29.531Z,6.00
2017-11-13T15:57:57.304Z,5.27
2017-11-13T16:00:26.561Z,5.43
2017-11-13T16:03:01.344Z,3.80
2017-11-13T16:05:29.306Z,3.37
2017-11-13T16:08:01.872Z,3.53
2017-11-13T16:10:35.438Z,3.50
2017-11-13T16:13:04.230Z,3.87
2017-11-13T16:15:31.156Z,4.30
2017-11-13T16:17:58.030Z,6.47
2017-11-13T16:20:24.961Z,5.05
2017-11-13T16:22:51.878Z,5.70
2017-11-13T16:25:18.917Z,4.97
2017-11-13T16:27:45.869Z,5.05
2017-11-13T16:30:12.846Z,5.43
2017-11-13T16:32:39.763Z,5.05
2017-11-13T16:35:06.642Z,4.45
2017-11-13T16:37:33.589Z,10.15
2017-11-13T16:40:00.621Z,6.90
2017-11-13T16:42:27.576Z,6.70
2017-11-13T16:44:54.872Z,5.30
2017-11-13T16:47:21.829Z,5.35
2017-11-13T16:49:49.784Z,5.65
2017-11-13T16:52:17.454Z,6.55
2017-11-13T16:54:45.201Z,7.10
2017-11-13T16:57:12.220Z,7.75
2017-11-13T16:59:39.292Z,6.47
2017-11-13T17:02:06.201Z,6.50
2017-11-13T17:04:33.158Z,8.82
2017-11-13T17:07:00.065Z,5.53
2017-11-13T17:09:30.002Z,5.28
2017-11-13T17:11:56.979Z,5.97
2017-11-13T17:14:23.901Z,11.95
2017-11-13T17:16:50.795Z,10.80
2017-11-13T17:19:17.760Z,8.10
2017-11-13T17:21:45.743Z,5.47
2017-11-13T17:24:12.723Z,4.70
2017-11-13T17:26:40.661Z,6.43
2017-11-13T17:29:08.814Z,10.27
2017-11-13T17:31:36.385Z,10.07
2017-11-13T17:34:12.004Z,9.38
2017-11-13T17:36:39.352Z,6.72
2017-11-13T17:39:08.151Z,6.90
2017-11-13T17:41:35.961Z,5.68
2017-11-13T17:44:02.899Z,7.72
2017-11-13T17:46:30.610Z,6.95
2017-11-13T17:48:57.848Z,5.30
2017-11-13T17:51:25.092Z,5.50
2017-11-13T17:53:59.256Z,6.20
2017-11-13T17:56:26.194Z,6.35
2017-11-13T17:58:53.160Z,6.50
2017-11-13T18:01:20.140Z,5.95
2017-11-13T18:03:47.229Z,4.93
2017-11-13T18:06:14.165Z,5.28
2017-11-13T18:08:41.070Z,7.60
2017-11-13T18:11:08.102Z,7.90
2017-11-13T18:13:35.030Z,10.20
2017-11-13T18:16:02.069Z,10.38
2017-11-13T18:18:29.112Z,9.80
2017-11-13T18:20:56.221Z,8.32
2017-11-13T18:23:23.253Z,6.57
2017-11-13T18:25:50.890Z,6.37
2017-11-13T18:28:17.879Z,4.95
2017-11-13T18:30:44.965Z,5.40
2017-11-13T18:33:11.863Z,5.05
2017-11-13T18:35:38.837Z,5.15
2017-11-13T18:38:05.726Z,5.60
2017-11-13T18:40:32.701Z,5.05
2017-11-13T18:43:00.473Z,15.57
2017-11-13T18:45:27.380Z,18.85
2017-11-13T18:47:54.377Z,14.00
2017-11-13T18:50:21.310Z,10.60
2017-11-13T18:52:48.255Z,7.68
2017-11-13T18:55:15.234Z,5.78
2017-11-13T18:57:42.137Z,5.65
2017-11-13T19:00:09.901Z,5.82
2017-11-13T19:02:37.548Z,7.15
2017-11-13T19:05:04.449Z,6.90
2017-11-13T19:07:31.512Z,3.72
2017-11-13T19:09:58.420Z,2.80
2017-11-13T19:12:26.096Z,2.80
2017-11-13T19:14:53.074Z,3.72
2017-11-13T19:17:20.024Z,7.65
2017-11-13T19:19:46.980Z,6.97
2017-11-13T19:22:18.748Z,7.12
2017-11-13T19:24:49.568Z,8.07
2017-11-13T19:27:16.812Z,12.37
2017-11-13T19:29:43.691Z,11.32
2017-11-13T19:32:11.643Z,5.68
2017-11-13T19:34:39.031Z,4.10
2017-11-13T19:37:07.524Z,3.85
2017-11-13T19:39:34.808Z,5.07
2017-11-13T19:42:02.962Z,4.12
2017-11-13T19:44:31.127Z,5.60
2017-11-13T19:46:58.357Z,4.93
2017-11-13T19:49:26.308Z,6.10
2017-11-13T19:52:05.200Z,4.20
2017-11-13T19:54:45.235Z,5.15
2017-11-13T19:57:13.163Z,5.72
2017-11-13T19:59:40.064Z,4.55
2017-11-13T20:02:06.944Z,5.25
2017-11-13T20:07:33.007Z,7.95
2017-11-13T20:10:01.572Z,10.10
2017-11-13T20:12:28.633Z,8.93
2017-11-13T20:14:55.510Z,8.13
2017-11-13T20:17:22.469Z,7.15
2017-11-13T20:19:49.331Z,5.20
2017-11-13T20:22:16.208Z,4.10
2017-11-13T20:24:43.154Z,4.05
2017-11-13T20:27:10.100Z,4.00
2017-11-13T20:29:37.184Z,4.40
2017-11-13T20:32:04.868Z,4.25
2017-11-13T20:34:31.744Z,3.60
2017-11-13T20:36:58.692Z,3.35
2017-11-13T20:39:25.655Z,4.45
2017-11-13T20:41:52.557Z,4.45
2017-11-13T20:44:19.549Z,4.35
2017-11-13T20:46:46.421Z,4.30
2017-11-13T20:49:14.159Z,4.85
2017-11-13T20:51:41.185Z,4.90
2017-11-13T20:54:08.121Z,5.97
2017-11-13T20:56:35.019Z,7.07
2017-11-13T20:59:01.894Z,8.52
2017-11-13T21:01:28.893Z,7.18
2017-11-13T21:03:56.094Z,7.50
2017-11-13T21:06:22.969Z,9.02
2017-11-13T21:08:49.954Z,6.25
2017-11-13T21:11:16.893Z,5.22
2017-11-13T21:13:43.809Z,5.47
2017-11-13T21:16:10.698Z,8.57
2017-11-13T21:18:37.656Z,6.55
2017-11-13T21:21:05.285Z,6.15
2017-11-13T21:23:32.191Z,6.65
2017-11-13T21:25:59.147Z,7.80
2017-11-13T21:28:26.070Z,9.23
2017-11-13T21:30:52.931Z,9.40
2017-11-13T21:33:20.010Z,8.35
2017-11-13T21:35:46.890Z,8.38
2017-11-13T21:38:14.508Z,8.38
2017-11-13T21:40:41.529Z,9.05
2017-11-13T21:43:09.691Z,9.00
2017-11-13T21:45:36.582Z,7.15
2017-11-13T21:48:03.619Z,6.25
2017-11-13T21:50:30.493Z,7.45
2017-11-13T21:52:57.569Z,6.32
2017-11-13T21:55:24.454Z,7.45
2017-11-13T21:58:01.470Z,7.57
2017-11-13T22:00:28.898Z,6.93
2017-11-13T22:02:55.813Z,8.98
2017-11-13T22:05:24.929Z,10.60
2017-11-13T22:07:51.975Z,9.02
2017-11-13T22:10:19.205Z,7.90
2017-11-13T22:12:46.153Z,9.15
2017-11-13T22:15:13.035Z,9.68
2017-11-13T22:17:39.928Z,10.07
2017-11-13T22:20:07.712Z,10.35
2017-11-13T22:22:34.676Z,10.75
2017-11-13T22:25:01.624Z,9.45
2017-11-13T22:27:28.545Z,21.37
2017-11-13T22:29:55.580Z,19.02
2017-11-13T22:32:23.278Z,13.75
2017-11-13T22:34:50.167Z,11.63
2017-11-13T22:37:17.036Z,14.18
2017-11-13T22:39:44.772Z,12.80
2017-11-13T22:42:12.604Z,10.60
2017-11-13T22:44:39.555Z,8.65
2017-11-13T22:47:06.453Z,6.50
2017-11-13T22:49:34.061Z,5.60
2017-11-13T22:52:02.379Z,5.40
2017-11-13T22:54:30.102Z,5.70
2017-11-13T22:56:57.077Z,6.10
2017-11-13T22:59:24.025Z,6.35
2017-11-13T23:01:50.996Z,6.22
2017-11-13T23:04:18.675Z,5.28
2017-11-13T23:06:46.393Z,6.00
2017-11-13T23:09:13.283Z,6.30
2017-11-13T23:11:40.242Z,6.12
2017-11-13T23:14:08.047Z,5.30
2017-11-13T23:16:35.946Z,5.40
2017-11-13T23:19:02.980Z,5.00
2017-11-13T23:21:29.851Z,5.57
2017-11-13T23:23:56.722Z,7.70
2017-11-13T23:26:23.729Z,5.50
2017-11-13T23:28:50.614Z,5.87
2017-11-13T23:31:17.491Z,5.12
2017-11-13T23:33:44.414Z,5.53
2017-11-13T23:36:11.366Z,6.85
2017-11-13T23:38:38.312Z,7.20
2017-11-13T23:41:06.218Z,6.85
2017-11-13T23:43:33.208Z,6.60
2017-11-13T23:46:00.065Z,6.03
2017-11-13T23:48:27.128Z,7.05
2017-11-13T23:50:54.009Z,6.40
2017-11-13T23:53:20.898Z,5.32
2017-11-13T23:55:47.894Z,7.82
2017-11-13T23:58:14.961Z,5.40
